createdAt,value
2018-08-18T00:01:16.657Z,21.87
2018-08-18T00:03:47.040Z,21.79
2018-08-18T00:06:17.301Z,21.76
2018-08-18T00:08:49.829Z,21.77
2018-08-18T00:11:22.602Z,21.68
2018-08-18T00:13:57.127Z,21.64
2018-08-18T00:16:29.377Z,21.63
2018-08-18T00:19:00.966Z,21.48
2018-08-18T00:21:34.020Z,21.39
2018-08-18T00:24:10.837Z,21.36
2018-08-18T00:26:42.717Z,21.27
2018-08-18T00:29:12.997Z,21.34
2018-08-18T00:31:44.903Z,21.28
2018-08-18T00:34:16.118Z,21.28
2018-08-18T00:36:47.623Z,21.30
2018-08-18T00:39:17.794Z,21.33
2018-08-18T00:41:49.077Z,21.35
2018-08-18T00:44:19.423Z,21.39
2018-08-18T00:46:49.854Z,21.43
2018-08-18T00:49:19.990Z,21.49
2018-08-18T00:51:51.148Z,21.45
2018-08-18T00:54:21.976Z,21.47
2018-08-18T00:56:53.137Z,21.46
2018-08-18T00:59:34.694Z,21.52
2018-08-18T01:02:05.158Z,21.51
2018-08-18T01:04:40.736Z,21.58
2018-08-18T01:07:20.611Z,21.57
2018-08-18T01:09:59.821Z,21.57
2018-08-18T01:12:39.942Z,21.61
2018-08-18T01:15:11.503Z,21.66
2018-08-18T01:17:41.816Z,21.59
2018-08-18T01:20:12.582Z,21.49
2018-08-18T01:22:48.346Z,21.58
2018-08-18T01:25:19.362Z,21.56
2018-08-18T01:27:52.585Z,21.58
2018-08-18T01:30:30.028Z,21.51
2018-08-18T01:33:01.504Z,21.46
2018-08-18T01:35:32.448Z,21.40
2018-08-18T01:38:04.055Z,21.45
2018-08-18T01:40:35.804Z,21.43
2018-08-18T01:43:06.828Z,21.41
2018-08-18T01:45:43.070Z,21.40
2018-08-18T01:48:14.001Z,21.33
2018-08-18T01:50:44.226Z,21.30
2018-08-18T01:53:15.596Z,21.29
2018-08-18T01:55:47.635Z,21.29
2018-08-18T01:58:17.754Z,21.21
2018-08-18T02:00:49.381Z,21.16
2018-08-18T02:03:19.642Z,21.08
2018-08-18T02:05:50.160Z,21.02
2018-08-18T02:08:20.400Z,21.01
2018-08-18T02:10:51.414Z,20.99
2018-08-18T02:13:22.378Z,20.94
2018-08-18T02:15:53.266Z,20.92
2018-08-18T02:18:23.559Z,20.94
2018-08-18T02:20:55.223Z,20.80
2018-08-18T02:23:26.498Z,20.70
2018-08-18T02:26:00.971Z,20.63
2018-08-18T02:28:32.574Z,20.63
2018-08-18T02:31:04.419Z,20.65
2018-08-18T02:33:34.488Z,20.60
2018-08-18T02:36:06.575Z,20.66
2018-08-18T02:38:40.293Z,20.73
2018-08-18T02:41:11.627Z,20.71
2018-08-18T02:43:42.310Z,20.72
2018-08-18T02:46:24.159Z,20.68
2018-08-18T02:48:55.126Z,20.67
2018-08-18T02:51:26.774Z,20.67
2018-08-18T02:53:57.318Z,20.67
2018-08-18T02:56:32.768Z,20.69
2018-08-18T02:59:06.166Z,20.67
2018-08-18T03:01:37.842Z,20.77
2018-08-18T03:04:12.005Z,20.79
2018-08-18T03:06:43.297Z,20.78
2018-08-18T03:09:13.439Z,20.78
2018-08-18T03:11:45.172Z,20.80
2018-08-18T03:14:17.316Z,20.76
2018-08-18T03:16:47.463Z,20.72
2018-08-18T03:19:18.675Z,20.67
2018-08-18T03:21:49.903Z,20.67
2018-08-18T03:24:23.415Z,20.67
2018-08-18T03:26:55.594Z,20.71
2018-08-18T03:29:26.994Z,20.66
2018-08-18T03:31:58.838Z,20.65
2018-08-18T03:34:34.856Z,20.68
2018-08-18T03:37:15.277Z,20.67
2018-08-18T03:39:47.145Z,20.69
2018-08-18T03:42:18.640Z,20.73
2018-08-18T03:44:56.437Z,20.70
2018-08-18T03:47:29.003Z,20.77
2018-08-18T03:49:59.331Z,20.85
2018-08-18T03:52:31.019Z,20.86
2018-08-18T03:55:01.332Z,20.80
2018-08-18T03:57:46.111Z,20.82
2018-08-18T04:00:17.331Z,20.81
2018-08-18T04:02:47.669Z,20.88
2018-08-18T04:05:19.116Z,20.84
2018-08-18T04:07:49.465Z,20.95
2018-08-18T04:10:21.098Z,20.84
2018-08-18T04:12:51.245Z,20.99
2018-08-18T04:15:22.506Z,21.05
2018-08-18T04:17:53.040Z,21.09
2018-08-18T04:20:25.144Z,20.95
2018-08-18T04:22:56.743Z,20.95
2018-08-18T04:25:28.036Z,20.95
2018-08-18T04:27:58.177Z,20.92
2018-08-18T04:30:29.421Z,20.98
2018-08-18T04:33:04.078Z,21.06
2018-08-18T04:35:34.954Z,20.96
2018-08-18T04:38:07.517Z,20.93
2018-08-18T04:40:37.880Z,20.86
2018-08-18T04:43:09.387Z,20.93
2018-08-18T04:45:40.953Z,20.99
2018-08-18T04:48:31.925Z,20.99
2018-08-18T04:51:02.022Z,20.99
2018-08-18T04:53:33.160Z,21.03
2018-08-18T04:56:05.741Z,21.10
2018-08-18T04:58:35.884Z,21.29
2018-08-18T05:01:06.029Z,21.23
2018-08-18T05:03:45.915Z,21.19
2018-08-18T05:06:16.987Z,21.18
2018-08-18T05:08:48.903Z,21.30
2018-08-18T05:11:19.384Z,21.30
2018-08-18T05:13:49.543Z,21.27
2018-08-18T05:16:19.719Z,21.37
2018-08-18T05:18:51.432Z,21.40
2018-08-18T05:21:24.501Z,21.46
2018-08-18T05:23:55.109Z,21.46
2018-08-18T05:26:28.884Z,21.56
2018-08-18T05:28:59.955Z,21.61
2018-08-18T05:31:30.060Z,21.75
2018-08-18T05:34:01.320Z,21.84
2018-08-18T05:36:31.790Z,21.87
2018-08-18T05:39:02.947Z,21.91
2018-08-18T05:41:34.632Z,22.10
2018-08-18T05:44:06.081Z,22.16
2018-08-18T05:46:36.502Z,22.41
2018-08-18T05:49:15.102Z,22.45
2018-08-18T05:51:49.059Z,22.46
2018-08-18T05:54:25.258Z,22.59
2018-08-18T05:56:55.717Z,22.69
2018-08-18T05:59:27.708Z,22.82
2018-08-18T06:01:57.971Z,22.99
2018-08-18T06:04:28.446Z,23.31
2018-08-18T06:07:00.185Z,23.56
2018-08-18T06:09:30.358Z,24.16
2018-08-18T06:12:06.513Z,24.29
2018-08-18T06:14:41.740Z,24.80
2018-08-18T06:17:18.176Z,24.97
2018-08-18T06:19:49.770Z,25.27
2018-08-18T06:22:22.026Z,25.47
2018-08-18T06:24:54.156Z,25.62
2018-08-18T06:27:29.275Z,25.99
2018-08-18T06:30:00.056Z,26.05
2018-08-18T06:32:30.672Z,26.31
2018-08-18T06:35:01.254Z,26.41
2018-08-18T06:37:32.679Z,25.93
2018-08-18T06:40:04.116Z,26.17
2018-08-18T06:42:39.621Z,27.00
2018-08-18T06:45:15.475Z,27.28
2018-08-18T06:47:46.109Z,27.16
2018-08-18T06:50:17.968Z,27.70
2018-08-18T06:52:50.014Z,28.04
2018-08-18T06:55:21.062Z,28.20
2018-08-18T06:57:53.352Z,27.83
2018-08-18T07:00:25.514Z,28.07
2018-08-18T07:02:55.543Z,27.07
2018-08-18T07:05:26.876Z,27.29
2018-08-18T07:07:57.665Z,28.07
2018-08-18T07:10:36.331Z,28.25
2018-08-18T07:13:09.267Z,27.55
2018-08-18T07:15:42.118Z,27.51
2018-08-18T07:18:14.023Z,27.54
2018-08-18T07:20:44.560Z,26.82
2018-08-18T07:23:16.649Z,26.94
2018-08-18T07:25:53.450Z,27.50
2018-08-18T07:28:24.008Z,27.98
2018-08-18T07:30:55.393Z,28.10
2018-08-18T07:33:25.732Z,27.87
2018-08-18T07:35:56.547Z,28.42
2018-08-18T07:38:27.854Z,28.06
2018-08-18T07:40:58.059Z,28.36
2018-08-18T07:43:34.231Z,29.14
2018-08-18T07:46:07.137Z,29.30
2018-08-18T07:48:38.518Z,29.35
2018-08-18T07:51:09.282Z,29.64
2018-08-18T07:53:40.170Z,29.19
2018-08-18T07:56:11.611Z,28.70
2018-08-18T07:58:43.540Z,29.07
2018-08-18T08:01:13.855Z,29.38
2018-08-18T08:03:45.414Z,29.36
2018-08-18T08:06:19.099Z,29.65
2018-08-18T08:08:49.891Z,29.05
2018-08-18T08:11:20.803Z,28.42
2018-08-18T08:13:51.156Z,27.56
2018-08-18T08:16:21.287Z,27.57
2018-08-18T08:18:51.379Z,28.12
2018-08-18T08:21:22.243Z,28.77
2018-08-18T08:23:53.378Z,28.88
2018-08-18T08:26:24.183Z,29.06
2018-08-18T08:28:55.255Z,29.25
2018-08-18T08:31:26.581Z,29.61
2018-08-18T08:33:57.447Z,29.94
2018-08-18T08:36:28.514Z,29.12
2018-08-18T08:39:01.439Z,28.41
2018-08-18T08:41:32.813Z,27.85
2018-08-18T08:44:03.184Z,28.30
2018-08-18T08:46:33.337Z,28.05
2018-08-18T08:49:03.718Z,28.57
2018-08-18T08:51:34.221Z,29.23
2018-08-18T08:54:05.051Z,28.83
2018-08-18T08:56:38.665Z,28.28
2018-08-18T08:59:10.407Z,28.66
2018-08-18T09:01:41.699Z,28.74
2018-08-18T09:04:15.793Z,29.70
2018-08-18T09:07:01.305Z,30.88
2018-08-18T09:09:33.303Z,31.50
2018-08-18T09:12:03.533Z,31.92
2018-08-18T09:14:33.830Z,32.77
2018-08-18T09:17:04.834Z,32.33
2018-08-18T09:19:35.774Z,32.62
2018-08-18T09:22:05.908Z,33.25
2018-08-18T09:24:37.054Z,32.50
2018-08-18T09:27:07.348Z,33.20
2018-08-18T09:29:47.375Z,33.43
2018-08-18T09:32:18.543Z,33.73
2018-08-18T09:34:54.548Z,33.76
2018-08-18T09:37:25.078Z,33.89
2018-08-18T09:39:57.605Z,34.13
2018-08-18T09:42:29.151Z,34.67
2018-08-18T09:44:59.529Z,33.33
2018-08-18T09:47:29.799Z,33.38
2018-08-18T09:50:00.547Z,32.85
2018-08-18T09:52:31.880Z,32.48
2018-08-18T09:55:02.821Z,33.65
2018-08-18T09:57:34.923Z,34.38
2018-08-18T10:00:07.945Z,34.58
2018-08-18T10:02:38.098Z,34.39
2018-08-18T10:05:10.065Z,35.38
2018-08-18T10:07:40.307Z,35.49
2018-08-18T10:10:15.163Z,35.12
2018-08-18T10:12:45.685Z,35.20
2018-08-18T10:15:17.933Z,34.74
2018-08-18T10:17:48.497Z,34.03
2018-08-18T10:20:19.902Z,33.61
2018-08-18T10:22:50.329Z,35.11
2018-08-18T10:25:20.468Z,35.11
2018-08-18T10:27:51.172Z,35.32
2018-08-18T10:30:22.670Z,36.53
2018-08-18T10:32:56.104Z,37.12
2018-08-18T10:35:30.336Z,35.32
2018-08-18T10:38:04.302Z,35.56
2018-08-18T10:40:35.893Z,34.84
2018-08-18T10:43:06.688Z,35.76
2018-08-18T10:45:37.480Z,35.44
2018-08-18T10:48:08.725Z,36.25
2018-08-18T10:51:47.351Z,37.40
2018-08-18T10:54:17.499Z,38.08
2018-08-18T10:56:49.090Z,38.50
2018-08-18T10:59:24.867Z,38.36
2018-08-18T11:02:06.540Z,38.24
2018-08-18T11:04:46.327Z,38.02
2018-08-18T11:07:17.994Z,39.07
2018-08-18T11:09:49.306Z,39.07
2018-08-18T11:12:19.898Z,39.64
2018-08-18T11:14:57.053Z,39.44
2018-08-18T11:17:28.166Z,38.89
2018-08-18T11:20:11.494Z,39.02
2018-08-18T11:22:53.381Z,38.81
2018-08-18T11:25:26.080Z,39.25
2018-08-18T11:27:57.397Z,38.84
2018-08-18T11:30:28.286Z,39.02
2018-08-18T11:33:01.052Z,39.40
2018-08-18T11:35:32.307Z,40.04
2018-08-18T11:38:10.284Z,39.47
2018-08-18T11:40:42.352Z,38.34
2018-08-18T11:43:17.634Z,38.57
2018-08-18T11:45:48.122Z,38.97
2018-08-18T11:48:20.820Z,38.85
2018-08-18T11:50:52.806Z,39.44
2018-08-18T11:53:23.540Z,38.39
2018-08-18T11:55:54.554Z,38.38
2018-08-18T11:58:25.545Z,38.33
2018-08-18T12:01:00.009Z,39.39
2018-08-18T12:03:32.932Z,40.42
2018-08-18T12:06:05.023Z,39.54
2018-08-18T12:08:36.415Z,38.64
2018-08-18T12:11:08.804Z,39.28
2018-08-18T12:13:41.876Z,40.34
2018-08-18T12:16:17.042Z,41.37
2018-08-18T12:18:48.733Z,41.50
2018-08-18T12:21:20.743Z,39.30
2018-08-18T12:23:51.959Z,40.20
2018-08-18T12:26:25.897Z,40.22
2018-08-18T12:28:58.009Z,40.03
2018-08-18T12:31:29.221Z,39.78
2018-08-18T12:34:00.355Z,40.50
2018-08-18T12:36:31.225Z,40.39
2018-08-18T12:39:01.307Z,41.02
2018-08-18T12:41:33.278Z,41.58
2018-08-18T12:44:03.466Z,42.12
2018-08-18T12:46:38.954Z,40.90
2018-08-18T12:49:09.117Z,38.73
2018-08-18T12:51:40.157Z,39.38
2018-08-18T12:54:10.888Z,40.60
2018-08-18T12:56:41.640Z,41.17
2018-08-18T12:59:12.107Z,41.46
2018-08-18T13:01:46.411Z,40.99
2018-08-18T13:04:18.443Z,40.57
2018-08-18T13:06:52.215Z,41.74
2018-08-18T13:09:27.026Z,41.81
2018-08-18T13:11:58.839Z,42.32
2018-08-18T13:14:31.358Z,42.11
2018-08-18T13:17:01.646Z,41.94
2018-08-18T13:19:34.326Z,41.86
2018-08-18T13:22:04.920Z,41.28
2018-08-18T13:24:35.322Z,40.35
2018-08-18T13:27:05.424Z,40.28
2018-08-18T13:29:35.791Z,40.05
2018-08-18T13:32:06.177Z,40.51
2018-08-18T13:34:38.228Z,41.80
2018-08-18T13:37:09.963Z,42.09
2018-08-18T13:39:40.562Z,42.31
2018-08-18T13:42:21.540Z,42.56
2018-08-18T13:44:55.702Z,42.55
2018-08-18T13:47:28.729Z,42.11
2018-08-18T13:50:03.701Z,40.60
2018-08-18T13:52:39.358Z,40.61
2018-08-18T13:55:11.216Z,39.96
2018-08-18T13:57:41.833Z,39.28
2018-08-18T14:00:17.300Z,41.38
2018-08-18T14:02:47.987Z,41.88
2018-08-18T14:05:24.371Z,43.14
2018-08-18T14:07:59.935Z,42.63
2018-08-18T14:10:31.239Z,38.28
2018-08-18T14:13:04.415Z,36.90
2018-08-18T14:15:34.497Z,37.88
2018-08-18T14:18:12.318Z,40.37
2018-08-18T14:21:20.414Z,42.09
2018-08-18T14:23:51.455Z,41.34
2018-08-18T14:26:20.495Z,41.02
2018-08-18T14:28:50.418Z,39.60
2018-08-18T14:31:19.701Z,39.44
2018-08-18T14:33:49.682Z,39.18
2018-08-18T14:36:19.758Z,38.89
2018-08-18T14:38:51.573Z,37.05
2018-08-18T14:41:53.172Z,35.98
2018-08-18T14:44:23.334Z,36.02
2018-08-18T14:46:53.403Z,35.71
2018-08-18T14:49:23.011Z,37.38
2018-08-18T14:51:52.798Z,37.65
2018-08-18T14:54:28.634Z,37.12
2018-08-18T14:57:00.350Z,37.63
2018-08-18T14:59:38.351Z,37.04
2018-08-18T15:02:08.257Z,35.54
2018-08-18T15:04:37.406Z,36.01
2018-08-18T15:07:06.430Z,37.27
2018-08-18T15:09:46.909Z,36.66
2018-08-18T15:12:16.060Z,37.58
2018-08-18T15:14:46.803Z,36.15
2018-08-18T15:17:16.435Z,36.02
2018-08-18T15:19:46.216Z,36.03
2018-08-18T15:22:16.323Z,35.83
2018-08-18T15:24:46.858Z,36.37
2018-08-18T15:27:16.877Z,37.76
2018-08-18T15:29:47.961Z,36.60
2018-08-18T15:32:18.085Z,35.82
2018-08-18T15:34:49.330Z,36.55
2018-08-18T15:37:21.012Z,36.85
2018-08-18T15:39:52.203Z,36.95
2018-08-18T15:42:23.211Z,37.54
2018-08-18T15:44:59.904Z,37.91
2018-08-18T15:47:32.236Z,38.06
2018-08-18T15:50:02.336Z,36.57
2018-08-18T15:52:35.139Z,35.71
2018-08-18T15:55:06.346Z,35.58
2018-08-18T15:57:36.775Z,35.42
2018-08-18T16:00:21.748Z,34.94
2018-08-18T16:02:51.189Z,34.43
2018-08-18T16:05:23.001Z,35.70
2018-08-18T16:07:54.664Z,35.97
2018-08-18T16:10:26.330Z,35.98
2018-08-18T16:12:58.311Z,35.60
2018-08-18T16:15:29.291Z,35.85
2018-08-18T16:17:59.972Z,35.82
2018-08-18T16:20:33.295Z,34.57
2018-08-18T16:23:08.382Z,35.13
2018-08-18T16:25:41.241Z,35.16
2018-08-18T16:28:13.502Z,34.71
2018-08-18T16:30:45.063Z,34.05
2018-08-18T16:33:18.876Z,33.67
2018-08-18T16:35:49.015Z,33.69
2018-08-18T16:38:19.151Z,34.12
2018-08-18T16:40:50.152Z,34.40
2018-08-18T16:43:21.338Z,34.21
2018-08-18T16:45:51.328Z,34.24
2018-08-18T16:48:21.758Z,34.09
2018-08-18T16:50:52.790Z,33.95
2018-08-18T16:53:24.237Z,33.76
2018-08-18T16:55:54.677Z,33.54
2018-08-18T16:58:25.987Z,33.03
2018-08-18T17:01:01.472Z,33.08
2018-08-18T17:03:35.663Z,33.05
2018-08-18T17:06:06.274Z,32.45
2018-08-18T17:08:36.779Z,32.13
2018-08-18T17:11:08.293Z,32.12
2018-08-18T17:13:40.362Z,31.69
2018-08-18T17:16:11.211Z,31.61
2018-08-18T17:18:42.118Z,31.69
2018-08-18T17:21:14.822Z,31.69
2018-08-18T17:23:46.666Z,31.69
2018-08-18T17:26:18.325Z,31.58
2018-08-18T17:28:48.464Z,31.46
2018-08-18T17:31:19.410Z,31.36
2018-08-18T17:33:50.267Z,31.22
2018-08-18T17:36:21.878Z,31.23
2018-08-18T17:38:52.324Z,31.30
2018-08-18T17:41:24.625Z,31.49
2018-08-18T17:43:56.937Z,31.66
2018-08-18T17:46:27.252Z,30.99
2018-08-18T17:48:58.533Z,30.37
2018-08-18T17:51:29.226Z,30.03
2018-08-18T17:53:59.765Z,29.90
2018-08-18T17:56:31.357Z,29.66
2018-08-18T17:59:03.742Z,29.53
2018-08-18T18:01:38.670Z,29.33
2018-08-18T18:04:09.783Z,29.12
2018-08-18T18:06:40.189Z,28.91
2018-08-18T18:09:11.379Z,28.76
2018-08-18T18:11:43.875Z,28.65
2018-08-18T18:14:14.919Z,28.56
2018-08-18T18:16:46.094Z,28.47
2018-08-18T18:19:16.929Z,28.33
2018-08-18T18:21:47.665Z,28.20
2018-08-18T18:24:27.621Z,28.13
2018-08-18T18:26:57.772Z,28.00
2018-08-18T18:29:28.750Z,27.87
2018-08-18T18:31:59.567Z,27.86
2018-08-18T18:34:30.042Z,27.75
2018-08-18T18:37:01.833Z,27.70
2018-08-18T18:39:53.965Z,27.64
2018-08-18T18:42:26.194Z,27.52
2018-08-18T18:44:59.930Z,27.50
2018-08-18T18:47:32.136Z,27.45
2018-08-18T18:50:03.887Z,27.32
2018-08-18T18:52:36.876Z,27.26
2018-08-18T18:55:08.752Z,27.21
2018-08-18T18:57:42.693Z,27.19
2018-08-18T19:00:12.955Z,27.11
2018-08-18T19:02:45.189Z,27.02
2018-08-18T19:05:22.511Z,26.99
2018-08-18T19:08:00.236Z,26.94
2018-08-18T19:10:33.567Z,26.95
2018-08-18T19:13:04.821Z,26.88
2018-08-18T19:15:36.018Z,26.85
2018-08-18T19:18:07.240Z,26.83
2018-08-18T19:20:40.170Z,26.79
2018-08-18T19:23:15.478Z,26.77
2018-08-18T19:25:47.048Z,26.70
2018-08-18T19:28:19.124Z,26.60
2018-08-18T19:30:49.847Z,26.56
2018-08-18T19:33:21.017Z,26.62
2018-08-18T19:35:52.829Z,26.49
2018-08-18T19:38:24.880Z,26.43
2018-08-18T19:40:56.276Z,26.44
2018-08-18T19:43:34.910Z,26.41
2018-08-18T19:46:06.399Z,26.31
2018-08-18T19:48:37.841Z,26.25
2018-08-18T19:51:08.285Z,26.16
2018-08-18T19:53:39.994Z,26.16
2018-08-18T19:56:12.521Z,26.09
2018-08-18T19:58:42.690Z,26.03
2018-08-18T20:01:12.813Z,25.99
2018-08-18T20:03:43.861Z,25.96
2018-08-18T20:06:20.446Z,25.94
2018-08-18T20:08:50.854Z,25.89
2018-08-18T20:11:22.557Z,25.84
2018-08-18T20:13:58.864Z,25.80
2018-08-18T20:16:29.830Z,25.79
2018-08-18T20:19:01.920Z,25.79
2018-08-18T20:21:33.356Z,25.69
2018-08-18T20:24:03.700Z,25.62
2018-08-18T20:26:34.883Z,25.56
2018-08-18T20:29:06.170Z,25.49
2018-08-18T20:31:42.079Z,25.53
2018-08-18T20:34:13.408Z,25.48
2018-08-18T20:36:43.825Z,25.43
2018-08-18T20:39:15.199Z,25.32
2018-08-18T20:41:46.076Z,25.26
2018-08-18T20:44:17.350Z,25.23
2018-08-18T20:46:47.473Z,25.15
2018-08-18T20:49:19.258Z,25.11
2018-08-18T20:51:50.390Z,25.04
2018-08-18T20:54:21.202Z,25.05
2018-08-18T20:56:51.929Z,25.05
2018-08-18T20:59:23.488Z,24.87
2018-08-18T21:01:53.901Z,24.78
2018-08-18T21:04:24.476Z,24.73
2018-08-18T21:06:55.570Z,24.73
2018-08-18T21:09:32.804Z,24.77
2018-08-18T21:12:03.544Z,24.65
2018-08-18T21:14:34.464Z,24.53
2018-08-18T21:17:05.594Z,24.39
2018-08-18T21:19:36.810Z,24.26
2018-08-18T21:22:11.092Z,24.24
2018-08-18T21:24:43.296Z,24.15
2018-08-18T21:27:14.817Z,24.11
2018-08-18T21:29:47.556Z,24.12
2018-08-18T21:32:17.809Z,24.10
2018-08-18T21:34:52.191Z,24.08
2018-08-18T21:39:52.986Z,24.08
2018-08-18T21:42:24.128Z,24.08
2018-08-18T21:44:55.603Z,24.08
2018-08-18T21:47:27.128Z,24.09
2018-08-18T21:49:58.346Z,24.18
2018-08-18T21:52:28.398Z,24.29
2018-08-18T21:54:59.928Z,24.27
2018-08-18T21:57:32.643Z,24.33
2018-08-18T22:00:04.289Z,24.34
2018-08-18T22:02:43.508Z,24.40
2018-08-18T22:05:14.706Z,24.33
2018-08-18T22:07:51.848Z,24.39
2018-08-18T22:10:22.876Z,24.31
2018-08-18T22:12:55.153Z,24.26
2018-08-18T22:15:27.306Z,24.19
2018-08-18T22:17:58.649Z,24.19
2018-08-18T22:20:29.562Z,24.18
2018-08-18T22:23:00.203Z,24.15
2018-08-18T22:25:30.540Z,24.13
2018-08-18T22:28:00.807Z,24.14
2018-08-18T22:30:31.400Z,24.08
2018-08-18T22:33:01.532Z,24.05
2018-08-18T22:35:32.096Z,24.05
2018-08-18T22:38:02.402Z,24.08
2018-08-18T22:40:36.776Z,24.04
2018-08-18T22:43:08.767Z,24.10
2018-08-18T22:45:39.131Z,24.07
2018-08-18T22:48:11.438Z,24.05
2018-08-18T22:50:44.202Z,24.06
2018-08-18T22:53:15.073Z,24.04
2018-08-18T22:55:45.240Z,24.05
2018-08-18T22:58:23.703Z,24.16
2018-08-18T23:01:05.108Z,24.06
2018-08-18T23:03:35.481Z,23.95
2018-08-18T23:06:07.002Z,23.90
2018-08-18T23:08:37.301Z,24.07
2018-08-18T23:11:07.894Z,24.06
2018-08-18T23:13:38.935Z,23.92
2018-08-18T23:16:12.299Z,23.84
2018-08-18T23:18:43.230Z,23.87
2018-08-18T23:21:34.080Z,23.78
2018-08-18T23:24:13.668Z,23.70
2018-08-18T23:26:44.034Z,23.79
2018-08-18T23:29:15.837Z,23.80
2018-08-18T23:31:47.150Z,23.67
2018-08-18T23:34:18.028Z,23.62
2018-08-18T23:36:49.143Z,23.58
2018-08-18T23:39:19.321Z,23.52
2018-08-18T23:41:57.594Z,23.56
2018-08-18T23:44:28.374Z,23.53
2018-08-18T23:46:59.352Z,23.49
2018-08-18T23:49:30.132Z,23.54
2018-08-18T23:52:01.156Z,23.36
2018-08-18T23:54:32.875Z,23.32
2018-08-18T23:57:04.833Z,23.21
2018-08-18T23:59:35.375Z,23.13
